Historyczne dane pomiarowe

Dodano dane terminowe – wersja testowa.

Dane z okresu 1951-2019

Wersja bazy: 1.34 [2019-03-16, lista zmian], aktualizacja planowana na 2019-04-15

Dane meteo z obszaru Polski uzyskane na podstawie danych udostępnionych przez Instytut Meteorologii i Gospodarki Wodnej – Państwowy Instytut Badawczy.

 

Wybierz Datę:    

       

TemperaturaWilgotnośćWiatrCiśnienieOpadyŚniegCzas trwania zjawisk
 Stacja t tx tn tng RH VA  wxwx mslp ppp RRR   cm mm wxwxwxwxwxwxwx
1983-08-14 13.2 17.8 8.5--- 4.7 3.7---- 0.0------------
1983-08-13 13.7 18.1 12.4--- 6.7 2.3---- 0.7------------
1983-08-12 18.2 24.7 10.5--- 2.7 2.3---- 2.0------------
1983-08-11 20.3 27.4 11.0--- 1.0 2.0---- 0.0------------
1983-08-10 18.8 26.0 9.8--- 0.0 1.7---- 0.0------------
1983-08-09 19.1 25.3 12.2--- 1.7 1.7---- 0.0------------
1983-08-08 19.8 25.6 13.6--- 2.0 2.0---- 0.0------------
1983-08-07 17.2 24.9 11.9--- 6.7 2.0---- 0.3------------
1983-08-06 17.3 22.6 14.5--- 4.0 1.0---- 0.0------------
1983-08-05 15.9 20.6 14.6--- 8.0 1.3---- 5.6------------
1983-08-04 20.0 25.5 17.3--- 8.0 2.7---- 4.3------------
1983-08-03 20.2 27.0 13.9--- 0.3 3.7---- 0.8------------
1983-08-02 20.5 26.9 14.5--- 0.3 2.3---- 0.0------------
1983-08-01 20.2 26.0 12.8--- 0.0 2.7---- 0.0------------
1983-07-31 17.2 23.6 12.1--- 5.7 1.7---- 0.0------------
1983-07-30 15.1 17.5 14.6--- 5.7 4.0---- 2.0------------
1983-07-29 17.0 19.8 15.1--- 7.3 1.7---- 2.0------------
1983-07-28 18.5 23.3 15.5--- 6.7 3.0---- 0.0------------
1983-07-27 19.4 27.8 15.1--- 3.0 0.7---- 0.0------------
1983-07-26 19.6 27.1 16.2--- 4.7 1.3---- 1.1------------
1983-07-25 14.3 18.6 11.5--- 6.3 3.3---- 11.8------------
1983-07-24 15.6 20.9 8.4--- 2.7 1.3---- 0.0------------
1983-07-23 14.0 19.7 9.8--- 7.0 2.3---- 7.8------------
1983-07-22 13.7 17.9 7.8--- 5.3 3.0---- 3.2------------
1983-07-21 11.6 15.6 7.3--- 6.7 7.0---- 0.5------------
1983-07-20 11.4 16.1 10.5--- 6.0 1.3---- 3.2------------
1983-07-19 17.7 22.5 15.8--- 7.3 2.3---- 12.8------------
1983-07-18 19.8 27.0 8.0--- 1.3 3.7---- 0.8------------
1983-07-17 18.3 23.7 10.5--- 1.3 1.3---- 0.0------------
1983-07-16 17.2 21.9 10.7--- 2.7 2.7---- 2.0------------
1983-07-15 18.2 24.6 10.7--- 2.0 2.3---- 0.0------------
1983-07-14 18.5 24.1 16.3--- 6.3 4.3---- 0.0------------
1983-07-13 19.9 27.0 12.9--- 5.0 1.0---- 13.2------------
1983-07-12 20.7 25.1 16.7--- 4.0 2.7---- 0.0------------
1983-07-11 20.7 27.4 13.5--- 5.7 1.7---- 6.2------------
1983-07-10 21.1 28.6 11.7--- 1.0 2.3---- 0.0------------
1983-07-09 19.6 27.6 10.8--- 2.3 2.0---- 1.3------------
1983-07-08 17.9 27.6 8.6--- 1.7 2.3---- 0.0------------
1983-07-07 17.7 24.4 7.8--- 0.0 2.7---- 0.0------------
1983-07-06 17.0 23.6 10.4--- 3.7 2.7---- 0.0------------
1983-07-05 16.1 21.7 8.2--- 2.7 1.0---- 0.0------------
1983-07-04 17.3 22.7 13.0--- 7.0 3.0---- 0.0------------
1983-07-03 15.0 23.5 5.7--- 4.7 2.0---- 0.0------------
1983-07-02 15.2 21.1 14.2--- 5.3 2.7---- 1.0------------
1983-07-01 18.1 24.4 10.8--- 5.0 5.3---- 0.0------------
1983-06-30 17.6 22.7 7.6--- 2.0 3.0---- 0.0------------
1983-06-29 13.9 18.7 7.8--- 2.0 2.3---- 0.0------------
1983-06-28 14.3 18.2 12.2--- 5.3 0.7---- 5.8------------
1983-06-27 16.5 22.3 9.5--- 7.3 2.3---- 0.8------------
1983-06-26 15.1 21.9 10.6--- 6.0 1.3---- 0.0------------
1983-06-25 16.7 23.7 7.8--- 2.7 3.0---- 0.0------------
1983-06-24 15.0 24.1 2.6--- 0.0 2.0---- 0.0------------
1983-06-23 13.5 20.4 2.6--- 0.0 1.7---- 0.0------------
1983-06-22 11.4 16.3 2.2--- 0.3 2.3---- 0.0------------
1983-06-21 13.1 19.5 9.6--- 2.7 2.0---- 0.0------------
1983-06-20 17.5 23.6 9.0--- 0.0 3.0---- 0.0------------
1983-06-19 16.7 20.5 13.4--- 4.0 3.7---- 0.0------------
1983-06-18 13.3 17.5 10.5--- 7.7 2.3---- 0.0------------
1983-06-17 13.9 19.5 10.3--- 6.3 5.0---- 0.0------------
1983-06-16 12.3 16.7 10.4--- 8.0 3.7---- 5.6------------
356.3 ms

 

Źródłem pochodzenia danych jest Instytut Meteorologii i Gospodarki Wodnej – Państwowy Instytut Badawczy. Dane Instytutu Meteorologii i Gospodarki Wodnej – Państwowego Instytutu Badawczego zostały przetworzone.

Dane źródłowe można odnaleźć na stronie https://dane.imgw.pl